Aéroport int. de Victoria, Colombie-Britannique

Conditions des dernières 24 heures

Date / Heure
(HAP)
Conditions Temp
(°F)
Humidité
(%)
Point de rosée
(°F)
Vent
(mph)
Pression (pouces) Visibilité
(miles)
28 mars 2015
19:00 Généralement nuageux 52 72 44 SO 8 30.3 30
18:00 Généralement nuageux 54 69 44 SSO 11 30.3 30
17:00 Généralement nuageux 55 68 44 S 7 30.3 30
16:00 Pluie faible 55 66 44 S 9 30.3 30
15:00 Généralement nuageux 57   59 42 S 10 30.3 30
14:00 Généralement nuageux 55 62 43 SSO 9 30.3 30
13:00 Généralement nuageux 54 64 42 SSO 13 rafale 19 30.3 30
12:00 Généralement nuageux 54 65 42 SSO 17 30.3 30
11:00 Généralement nuageux 55 62 43 O 8 30.3 30
10:00 Généralement nuageux 55 60 41 O 19 rafale 27 30.2 30
9:00 Partiellement nuageux 53 61 40 OSO 22 rafale 29 30.2 30
8:00 Généralement ensoleillé 52 66 41 OSO 22 rafale 30 30.2 30
7:00 Généralement nuageux 51 70 41 O 13 rafale 23 30.1 30
6:00 Généralement nuageux 51 68 41 O 17 rafale 24 30.1 30
5:00 Généralement nuageux 52 68 42 O 16 rafale 23 30.0 30
4:00 Généralement nuageux 51 71 42 OSO 6 30.0 30
3:00 Généralement nuageux 50   69 41 S 3 30.0 30
2:00 Généralement nuageux 51 68 41 SO 17 rafale 23 30.0 30
1:00 Généralement nuageux 52 71 43 SE 4 30.0 30
0:00 Partiellement nuageux 52 69 43 OSO 17 rafale 27 29.9 30
27 mars 2015
23:00 Généralement nuageux 54 70 44 SO 18 rafale 25 29.9 30
22:00 Généralement nuageux 54 77 47 SO 14 rafale 20 29.9 20
21:00 Pluie faible 54 76 47 SSO 19 rafale 26 29.9 15
20:00 Pluie faible 56 76 49 SO 11 29.9 20
19:00 Généralement nuageux 53 86 50 SE 4 29.9 30
N.D. non disponible
↑ température la plus haute
↓ température la plus basse

Si vous désirez plus de données historiques sur les conditions météo, s.v.p. visitez Données climatologiques en ligne.

Ce que nous faisons

Date de modification :